sensor_id;sensor_type;location;lat;lon;timestamp;P1;durP1;ratioP1;P2;durP2;ratioP2
48919;SDS011;34730;50.894;6.052;2022-07-29T00:00:10;6.32;;;1.45;;
48919;SDS011;34730;50.894;6.052;2022-07-29T00:00:42;4.50;;;1.40;;
48919;SDS011;34730;50.894;6.052;2022-07-29T00:01:15;5.35;;;1.80;;
48919;SDS011;34730;50.894;6.052;2022-07-29T00:01:46;3.55;;;1.65;;
48919;SDS011;34730;50.894;6.052;2022-07-29T00:02:17;5.93;;;1.65;;
48919;SDS011;34730;50.894;6.052;2022-07-29T00:02:48;5.18;;;1.80;;
48919;SDS011;34730;50.894;6.052;2022-07-29T00:03:20;3.50;;;1.38;;
48919;SDS011;34730;50.894;6.052;2022-07-29T00:03:50;6.60;;;1.90;;
48919;SDS011;34730;50.894;6.052;2022-07-29T00:04:21;3.53;;;1.33;;
48919;SDS011;34730;50.894;6.052;2022-07-29T00:04:52;4.85;;;1.60;;
48919;SDS011;34730;50.894;6.052;2022-07-29T00:05:23;3.75;;;1.60;;
48919;SDS011;34730;50.894;6.052;2022-07-29T00:05:53;5.57;;;1.83;;
48919;SDS011;34730;50.894;6.052;2022-07-29T00:06:26;3.17;;;1.60;;
48919;SDS011;34730;50.894;6.052;2022-07-29T00:06:58;4.30;;;1.70;;
48919;SDS011;34730;50.894;6.052;2022-07-29T00:07:29;4.38;;;1.40;;
48919;SDS011;34730;50.894;6.052;2022-07-29T00:08:00;5.07;;;1.77;;
48919;SDS011;34730;50.894;6.052;2022-07-29T00:08:31;3.30;;;1.63;;
48919;SDS011;34730;50.894;6.052;2022-07-29T00:09:04;4.97;;;1.65;;
48919;SDS011;34730;50.894;6.052;2022-07-29T00:09:35;3.97;;;1.30;;
48919;SDS011;34730;50.894;6.052;2022-07-29T00:10:06;6.00;;;1.77;;
48919;SDS011;34730;50.894;6.052;2022-07-29T00:10:39;2.67;;;1.40;;
48919;SDS011;34730;50.894;6.052;2022-07-29T00:11:13;4.38;;;1.35;;
48919;SDS011;34730;50.894;6.052;2022-07-29T00:11:44;3.15;;;1.10;;
48919;SDS011;34730;50.894;6.052;2022-07-29T00:12:15;3.88;;;1.40;;
48919;SDS011;34730;50.894;6.052;2022-07-29T00:12:46;5.50;;;1.70;;
48919;SDS011;34730;50.894;6.052;2022-07-29T00:13:17;5.25;;;1.80;;
48919;SDS011;34730;50.894;6.052;2022-07-29T00:13:48;3.50;;;1.40;;
48919;SDS011;34730;50.894;6.052;2022-07-29T00:14:18;6.05;;;1.90;;
48919;SDS011;34730;50.894;6.052;2022-07-29T00:14:52;5.80;;;1.70;;
48919;SDS011;34730;50.894;6.052;2022-07-29T00:15:27;5.45;;;1.50;;
48919;SDS011;34730;50.894;6.052;2022-07-29T00:15:58;4.57;;;1.70;;
48919;SDS011;34730;50.894;6.052;2022-07-29T00:16:29;5.30;;;1.35;;
48919;SDS011;34730;50.894;6.052;2022-07-29T00:16:59;5.68;;;1.80;;
48919;SDS011;34730;50.894;6.052;2022-07-29T00:17:30;4.13;;;1.70;;
48919;SDS011;34730;50.894;6.052;2022-07-29T00:18:01;6.07;;;1.52;;
48919;SDS011;34730;50.894;6.052;2022-07-29T00:18:32;4.80;;;1.63;;
48919;SDS011;34730;50.894;6.052;2022-07-29T00:19:03;4.70;;;1.45;;
48919;SDS011;34730;50.894;6.052;2022-07-29T00:19:34;7.72;;;1.58;;
48919;SDS011;34730;50.894;6.052;2022-07-29T00:20:05;4.65;;;1.42;;
48919;SDS011;34730;50.894;6.052;2022-07-29T00:20:37;4.47;;;1.50;;
48919;SDS011;34730;50.894;6.052;2022-07-29T00:21:10;5.10;;;1.60;;
48919;SDS011;34730;50.894;6.052;2022-07-29T00:21:41;4.53;;;1.60;;
48919;SDS011;34730;50.894;6.052;2022-07-29T00:22:14;6.45;;;1.73;;
48919;SDS011;34730;50.894;6.052;2022-07-29T00:22:45;4.80;;;1.67;;
48919;SDS011;34730;50.894;6.052;2022-07-29T00:23:18;5.13;;;1.73;;
48919;SDS011;34730;50.894;6.052;2022-07-29T00:23:49;4.97;;;1.58;;
48919;SDS011;34730;50.894;6.052;2022-07-29T00:24:22;5.20;;;1.63;;
48919;SDS011;34730;50.894;6.052;2022-07-29T00:24:55;3.88;;;1.73;;
48919;SDS011;34730;50.894;6.052;2022-07-29T00:25:26;5.68;;;1.55;;
48919;SDS011;34730;50.894;6.052;2022-07-29T00:25:58;5.75;;;1.40;;
48919;SDS011;34730;50.894;6.052;2022-07-29T00:26:29;6.80;;;1.88;;
48919;SDS011;34730;50.894;6.052;2022-07-29T00:27:03;3.03;;;1.45;;
48919;SDS011;34730;50.894;6.052;2022-07-29T00:27:36;4.90;;;1.52;;
48919;SDS011;34730;50.894;6.052;2022-07-29T00:28:07;3.58;;;1.80;;
48919;SDS011;34730;50.894;6.052;2022-07-29T00:28:43;5.10;;;1.50;;
48919;SDS011;34730;50.894;6.052;2022-07-29T00:29:14;3.92;;;1.55;;
48919;SDS011;34730;50.894;6.052;2022-07-29T00:29:45;4.57;;;1.70;;
48919;SDS011;34730;50.894;6.052;2022-07-29T00:30:15;5.45;;;1.50;;
48919;SDS011;34730;50.894;6.052;2022-07-29T00:30:47;4.03;;;1.38;;
48919;SDS011;34730;50.894;6.052;2022-07-29T00:31:20;5.28;;;1.73;;
48919;SDS011;34730;50.894;6.052;2022-07-29T00:31:50;6.97;;;1.92;;
48919;SDS011;34730;50.894;6.052;2022-07-29T00:32:24;4.10;;;1.77;;
48919;SDS011;34730;50.894;6.052;2022-07-29T00:32:55;5.25;;;1.40;;
48919;SDS011;34730;50.894;6.052;2022-07-29T00:33:28;6.25;;;1.50;;
48919;SDS011;34730;50.894;6.052;2022-07-29T00:33:59;5.72;;;1.52;;
48919;SDS011;34730;50.894;6.052;2022-07-29T00:34:31;7.32;;;1.50;;
48919;SDS011;34730;50.894;6.052;2022-07-29T00:35:23;4.43;;;1.63;;
48919;SDS011;34730;50.894;6.052;2022-07-29T00:36:12;5.40;;;1.70;;
48919;SDS011;34730;50.894;6.052;2022-07-29T00:36:43;5.78;;;1.63;;
48919;SDS011;34730;50.894;6.052;2022-07-29T00:37:14;5.95;;;1.60;;
48919;SDS011;34730;50.894;6.052;2022-07-29T00:37:44;6.47;;;1.80;;
48919;SDS011;34730;50.894;6.052;2022-07-29T00:38:20;4.70;;;1.98;;
48919;SDS011;34730;50.894;6.052;2022-07-29T00:38:51;4.35;;;1.50;;
48919;SDS011;34730;50.894;6.052;2022-07-29T00:39:26;4.75;;;1.52;;
48919;SDS011;34730;50.894;6.052;2022-07-29T00:39:57;10.50;;;2.25;;
48919;SDS011;34730;50.894;6.052;2022-07-29T00:40:28;5.35;;;1.63;;
48919;SDS011;34730;50.894;6.052;2022-07-29T00:41:01;4.35;;;1.42;;
48919;SDS011;34730;50.894;6.052;2022-07-29T00:41:35;4.03;;;1.58;;
48919;SDS011;34730;50.894;6.052;2022-07-29T00:42:06;5.05;;;1.70;;
48919;SDS011;34730;50.894;6.052;2022-07-29T00:42:41;4.07;;;1.52;;
48919;SDS011;34730;50.894;6.052;2022-07-29T00:43:16;3.63;;;1.70;;
48919;SDS011;34730;50.894;6.052;2022-07-29T00:43:48;4.93;;;1.50;;
48919;SDS011;34730;50.894;6.052;2022-07-29T00:44:19;4.80;;;1.70;;
48919;SDS011;34730;50.894;6.052;2022-07-29T00:44:50;3.67;;;1.48;;
48919;SDS011;34730;50.894;6.052;2022-07-29T00:45:21;4.55;;;1.52;;
48919;SDS011;34730;50.894;6.052;2022-07-29T00:45:52;6.10;;;1.92;;
48919;SDS011;34730;50.894;6.052;2022-07-29T00:46:23;5.75;;;1.88;;
48919;SDS011;34730;50.894;6.052;2022-07-29T00:46:54;9.75;;;1.63;;
48919;SDS011;34730;50.894;6.052;2022-07-29T00:47:25;6.57;;;1.80;;
48919;SDS011;34730;50.894;6.052;2022-07-29T00:47:58;6.43;;;1.80;;
48919;SDS011;34730;50.894;6.052;2022-07-29T00:48:29;7.20;;;2.05;;
48919;SDS011;34730;50.894;6.052;2022-07-29T00:49:00;7.00;;;1.70;;
48919;SDS011;34730;50.894;6.052;2022-07-29T00:49:32;7.03;;;2.30;;
48919;SDS011;34730;50.894;6.052;2022-07-29T00:50:04;9.20;;;1.85;;
48919;SDS011;34730;50.894;6.052;2022-07-29T00:50:36;5.05;;;1.83;;
48919;SDS011;34730;50.894;6.052;2022-07-29T00:51:07;5.70;;;2.05;;
48919;SDS011;34730;50.894;6.052;2022-07-29T00:51:40;8.65;;;2.40;;
48919;SDS011;34730;50.894;6.052;2022-07-29T00:52:11;7.10;;;2.17;;
48919;SDS011;34730;50.894;6.052;2022-07-29T00:52:42;8.05;;;2.40;;
48919;SDS011;34730;50.894;6.052;2022-07-29T00:53:13;6.85;;;2.45;;
48919;SDS011;34730;50.894;6.052;2022-07-29T00:53:44;8.55;;;2.90;;
48919;SDS011;34730;50.894;6.052;2022-07-29T00:54:17;9.20;;;2.85;;
48919;SDS011;34730;50.894;6.052;2022-07-29T00:54:48;7.05;;;2.40;;
48919;SDS011;34730;50.894;6.052;2022-07-29T00:55:21;8.23;;;2.42;;
48919;SDS011;34730;50.894;6.052;2022-07-29T00:55:53;6.93;;;2.53;;
48919;SDS011;34730;50.894;6.052;2022-07-29T00:56:25;6.47;;;2.60;;
48919;SDS011;34730;50.894;6.052;2022-07-29T00:56:58;9.15;;;2.58;;
48919;SDS011;34730;50.894;6.052;2022-07-29T00:57:30;9.20;;;2.75;;
48919;SDS011;34730;50.894;6.052;2022-07-29T00:58:00;13.50;;;2.75;;
48919;SDS011;34730;50.894;6.052;2022-07-29T00:58:31;6.03;;;2.20;;
48919;SDS011;34730;50.894;6.052;2022-07-29T00:59:04;5.93;;;2.50;;
48919;SDS011;34730;50.894;6.052;2022-07-29T00:59:35;5.78;;;2.33;;
48919;SDS011;34730;50.894;6.052;2022-07-29T01:00:07;7.82;;;2.60;;
48919;SDS011;34730;50.894;6.052;2022-07-29T01:00:39;7.18;;;2.05;;
48919;SDS011;34730;50.894;6.052;2022-07-29T01:01:10;9.13;;;2.70;;
48919;SDS011;34730;50.894;6.052;2022-07-29T01:01:43;8.70;;;2.40;;
48919;SDS011;34730;50.894;6.052;2022-07-29T01:02:14;8.25;;;2.47;;
48919;SDS011;34730;50.894;6.052;2022-07-29T01:02:45;7.47;;;2.20;;
48919;SDS011;34730;50.894;6.052;2022-07-29T01:03:20;7.15;;;2.20;;
48919;SDS011;34730;50.894;6.052;2022-07-29T01:03:51;5.65;;;2.13;;
48919;SDS011;34730;50.894;6.052;2022-07-29T01:04:22;6.03;;;2.60;;
48919;SDS011;34730;50.894;6.052;2022-07-29T01:04:54;6.88;;;2.40;;
48919;SDS011;34730;50.894;6.052;2022-07-29T01:05:27;4.80;;;2.03;;
48919;SDS011;34730;50.894;6.052;2022-07-29T01:05:59;6.03;;;2.10;;
48919;SDS011;34730;50.894;6.052;2022-07-29T01:06:30;5.60;;;2.38;;
48919;SDS011;34730;50.894;6.052;2022-07-29T01:07:01;8.50;;;2.42;;
48919;SDS011;34730;50.894;6.052;2022-07-29T01:07:34;8.13;;;2.60;;
48919;SDS011;34730;50.894;6.052;2022-07-29T01:08:07;6.35;;;2.40;;
48919;SDS011;34730;50.894;6.052;2022-07-29T01:08:38;9.05;;;3.38;;
48919;SDS011;34730;50.894;6.052;2022-07-29T01:09:10;7.35;;;2.50;;
48919;SDS011;34730;50.894;6.052;2022-07-29T01:09:42;8.68;;;2.42;;
48919;SDS011;34730;50.894;6.052;2022-07-29T01:10:16;8.68;;;2.75;;
48919;SDS011;34730;50.894;6.052;2022-07-29T01:10:49;6.75;;;2.78;;
48919;SDS011;34730;50.894;6.052;2022-07-29T01:11:22;9.07;;;2.55;;
48919;SDS011;34730;50.894;6.052;2022-07-29T01:11:55;8.18;;;2.72;;
48919;SDS011;34730;50.894;6.052;2022-07-29T01:12:27;6.78;;;2.60;;
48919;SDS011;34730;50.894;6.052;2022-07-29T01:13:02;6.95;;;2.25;;
48919;SDS011;34730;50.894;6.052;2022-07-29T01:13:34;6.13;;;2.22;;
48919;SDS011;34730;50.894;6.052;2022-07-29T01:14:06;8.07;;;2.50;;
48919;SDS011;34730;50.894;6.052;2022-07-29T01:14:38;6.07;;;2.53;;
48919;SDS011;34730;50.894;6.052;2022-07-29T01:15:11;8.63;;;2.72;;
48919;SDS011;34730;50.894;6.052;2022-07-29T01:15:54;6.70;;;2.30;;
48919;SDS011;34730;50.894;6.052;2022-07-29T01:16:31;6.97;;;2.10;;
48919;SDS011;34730;50.894;6.052;2022-07-29T01:17:06;7.38;;;2.58;;
48919;SDS011;34730;50.894;6.052;2022-07-29T01:18:11;7.47;;;3.00;;
48919;SDS011;34730;50.894;6.052;2022-07-29T01:18:49;5.57;;;2.20;;
48919;SDS011;34730;50.894;6.052;2022-07-29T01:22:35;6.30;;;2.25;;
48919;SDS011;34730;50.894;6.052;2022-07-29T01:24:47;5.30;;;2.33;;
48919;SDS011;34730;50.894;6.052;2022-07-29T01:27:07;6.32;;;2.33;;
48919;SDS011;34730;50.894;6.052;2022-07-29T01:29:26;8.32;;;2.47;;
48919;SDS011;34730;50.894;6.052;2022-07-29T01:30:01;6.75;;;2.40;;
48919;SDS011;34730;50.894;6.052;2022-07-29T01:30:33;5.65;;;2.30;;
48919;SDS011;34730;50.894;6.052;2022-07-29T01:31:06;5.35;;;2.35;;
48919;SDS011;34730;50.894;6.052;2022-07-29T01:32:35;5.18;;;2.10;;
48919;SDS011;34730;50.894;6.052;2022-07-29T01:33:09;6.25;;;2.30;;
48919;SDS011;34730;50.894;6.052;2022-07-29T01:34:05;7.95;;;2.40;;
48919;SDS011;34730;50.894;6.052;2022-07-29T01:34:44;8.52;;;2.20;;
48919;SDS011;34730;50.894;6.052;2022-07-29T01:36:05;5.47;;;1.98;;
48919;SDS011;34730;50.894;6.052;2022-07-29T01:36:47;5.47;;;2.28;;
48919;SDS011;34730;50.894;6.052;2022-07-29T01:37:29;5.53;;;2.28;;
48919;SDS011;34730;50.894;6.052;2022-07-29T01:38:19;3.88;;;2.20;;
48919;SDS011;34730;50.894;6.052;2022-07-29T01:39:02;6.45;;;2.20;;
48919;SDS011;34730;50.894;6.052;2022-07-29T01:39:43;6.43;;;2.13;;
48919;SDS011;34730;50.894;6.052;2022-07-29T01:40:36;6.85;;;2.22;;
48919;SDS011;34730;50.894;6.052;2022-07-29T01:41:12;15.40;;;2.53;;
48919;SDS011;34730;50.894;6.052;2022-07-29T01:41:57;8.57;;;2.30;;
48919;SDS011;34730;50.894;6.052;2022-07-29T01:43:17;7.45;;;2.40;;
48919;SDS011;34730;50.894;6.052;2022-07-29T01:43:54;9.57;;;2.55;;
48919;SDS011;34730;50.894;6.052;2022-07-29T01:44:39;4.10;;;2.03;;
48919;SDS011;34730;50.894;6.052;2022-07-29T01:45:23;4.95;;;2.20;;
48919;SDS011;34730;50.894;6.052;2022-07-29T01:46:04;5.93;;;2.08;;
48919;SDS011;34730;50.894;6.052;2022-07-29T01:46:41;4.32;;;1.98;;
48919;SDS011;34730;50.894;6.052;2022-07-29T01:47:20;4.80;;;2.15;;
48919;SDS011;34730;50.894;6.052;2022-07-29T01:48:12;6.90;;;2.20;;
48919;SDS011;34730;50.894;6.052;2022-07-29T01:48:47;8.40;;;2.38;;
48919;SDS011;34730;50.894;6.052;2022-07-29T01:49:22;7.97;;;2.50;;
48919;SDS011;34730;50.894;6.052;2022-07-29T01:49:57;6.97;;;2.67;;
48919;SDS011;34730;50.894;6.052;2022-07-29T01:50:43;7.43;;;2.33;;
48919;SDS011;34730;50.894;6.052;2022-07-29T01:51:24;6.93;;;2.60;;
48919;SDS011;34730;50.894;6.052;2022-07-29T01:52:11;5.70;;;2.50;;
48919;SDS011;34730;50.894;6.052;2022-07-29T01:53:23;7.15;;;2.40;;
48919;SDS011;34730;50.894;6.052;2022-07-29T01:55:16;6.40;;;2.33;;
48919;SDS011;34730;50.894;6.052;2022-07-29T01:55:50;6.13;;;2.20;;
48919;SDS011;34730;50.894;6.052;2022-07-29T01:56:23;7.13;;;2.10;;
48919;SDS011;34730;50.894;6.052;2022-07-29T01:56:56;5.57;;;2.08;;
48919;SDS011;34730;50.894;6.052;2022-07-29T01:57:29;6.10;;;2.42;;
48919;SDS011;34730;50.894;6.052;2022-07-29T01:58:03;9.23;;;2.80;;
48919;SDS011;34730;50.894;6.052;2022-07-29T01:58:36;6.53;;;2.50;;
48919;SDS011;34730;50.894;6.052;2022-07-29T01:59:10;6.32;;;2.25;;
48919;SDS011;34730;50.894;6.052;2022-07-29T01:59:42;4.57;;;2.20;;
48919;SDS011;34730;50.894;6.052;2022-07-29T02:00:15;7.90;;;2.63;;
48919;SDS011;34730;50.894;6.052;2022-07-29T02:00:47;7.93;;;2.97;;
48919;SDS011;34730;50.894;6.052;2022-07-29T02:01:19;6.68;;;2.20;;
48919;SDS011;34730;50.894;6.052;2022-07-29T02:01:54;9.82;;;2.40;;
48919;SDS011;34730;50.894;6.052;2022-07-29T02:02:27;6.82;;;2.40;;
48919;SDS011;34730;50.894;6.052;2022-07-29T02:03:00;4.88;;;2.20;;
48919;SDS011;34730;50.894;6.052;2022-07-29T02:03:42;5.55;;;2.30;;
48919;SDS011;34730;50.894;6.052;2022-07-29T02:04:15;5.95;;;2.15;;
48919;SDS011;34730;50.894;6.052;2022-07-29T02:04:48;7.18;;;2.67;;
48919;SDS011;34730;50.894;6.052;2022-07-29T02:05:21;5.38;;;2.40;;
48919;SDS011;34730;50.894;6.052;2022-07-29T02:05:53;8.95;;;2.60;;
48919;SDS011;34730;50.894;6.052;2022-07-29T02:06:28;6.45;;;2.72;;
48919;SDS011;34730;50.894;6.052;2022-07-29T02:07:04;6.57;;;2.67;;
48919;SDS011;34730;50.894;6.052;2022-07-29T02:07:36;4.38;;;2.35;;
48919;SDS011;34730;50.894;6.052;2022-07-29T02:08:10;7.60;;;2.20;;
48919;SDS011;34730;50.894;6.052;2022-07-29T02:08:45;5.80;;;2.40;;
48919;SDS011;34730;50.894;6.052;2022-07-29T02:09:19;6.78;;;2.63;;
48919;SDS011;34730;50.894;6.052;2022-07-29T02:09:52;5.82;;;2.20;;
48919;SDS011;34730;50.894;6.052;2022-07-29T02:10:26;4.90;;;2.33;;
48919;SDS011;34730;50.894;6.052;2022-07-29T02:10:59;8.15;;;2.22;;
48919;SDS011;34730;50.894;6.052;2022-07-29T02:11:32;5.07;;;2.30;;
48919;SDS011;34730;50.894;6.052;2022-07-29T02:12:04;6.50;;;2.60;;
48919;SDS011;34730;50.894;6.052;2022-07-29T02:12:37;7.65;;;2.45;;
48919;SDS011;34730;50.894;6.052;2022-07-29T02:13:11;7.05;;;2.33;;
48919;SDS011;34730;50.894;6.052;2022-07-29T02:13:43;8.98;;;2.80;;
48919;SDS011;34730;50.894;6.052;2022-07-29T02:14:15;8.80;;;2.30;;
48919;SDS011;34730;50.894;6.052;2022-07-29T02:14:50;5.35;;;2.28;;
48919;SDS011;34730;50.894;6.052;2022-07-29T02:15:22;10.15;;;2.47;;
48919;SDS011;34730;50.894;6.052;2022-07-29T02:15:55;6.43;;;2.50;;
48919;SDS011;34730;50.894;6.052;2022-07-29T02:16:28;7.07;;;2.30;;
48919;SDS011;34730;50.894;6.052;2022-07-29T02:17:02;6.10;;;2.47;;
48919;SDS011;34730;50.894;6.052;2022-07-29T02:17:34;5.18;;;2.33;;
48919;SDS011;34730;50.894;6.052;2022-07-29T02:18:12;6.22;;;2.60;;
48919;SDS011;34730;50.894;6.052;2022-07-29T02:18:47;6.00;;;2.55;;
48919;SDS011;34730;50.894;6.052;2022-07-29T02:19:23;7.82;;;2.65;;
48919;SDS011;34730;50.894;6.052;2022-07-29T02:20:00;5.22;;;2.30;;
48919;SDS011;34730;50.894;6.052;2022-07-29T02:20:32;4.60;;;2.50;;
48919;SDS011;34730;50.894;6.052;2022-07-29T02:21:03;7.03;;;2.50;;
48919;SDS011;34730;50.894;6.052;2022-07-29T02:21:35;6.15;;;2.83;;
48919;SDS011;34730;50.894;6.052;2022-07-29T02:22:06;5.25;;;2.40;;
48919;SDS011;34730;50.894;6.052;2022-07-29T02:22:39;8.50;;;2.90;;
48919;SDS011;34730;50.894;6.052;2022-07-29T02:23:11;7.60;;;2.75;;
48919;SDS011;34730;50.894;6.052;2022-07-29T02:23:44;7.18;;;3.15;;
48919;SDS011;34730;50.894;6.052;2022-07-29T02:24:16;5.63;;;2.35;;
48919;SDS011;34730;50.894;6.052;2022-07-29T02:24:48;5.05;;;2.55;;
48919;SDS011;34730;50.894;6.052;2022-07-29T02:25:21;6.65;;;2.22;;
48919;SDS011;34730;50.894;6.052;2022-07-29T02:25:55;5.70;;;2.63;;
48919;SDS011;34730;50.894;6.052;2022-07-29T02:26:27;6.95;;;2.25;;
48919;SDS011;34730;50.894;6.052;2022-07-29T02:27:00;6.75;;;2.97;;
48919;SDS011;34730;50.894;6.052;2022-07-29T02:27:33;6.60;;;2.53;;
48919;SDS011;34730;50.894;6.052;2022-07-29T02:28:05;7.65;;;2.30;;
48919;SDS011;34730;50.894;6.052;2022-07-29T02:28:37;6.88;;;2.58;;
48919;SDS011;34730;50.894;6.052;2022-07-29T02:29:13;6.50;;;2.50;;
48919;SDS011;34730;50.894;6.052;2022-07-29T02:29:48;7.10;;;2.88;;
48919;SDS011;34730;50.894;6.052;2022-07-29T02:30:19;10.40;;;2.70;;
48919;SDS011;34730;50.894;6.052;2022-07-29T02:30:53;5.60;;;2.10;;
48919;SDS011;34730;50.894;6.052;2022-07-29T02:31:30;6.43;;;2.78;;
48919;SDS011;34730;50.894;6.052;2022-07-29T02:32:04;7.20;;;2.70;;
48919;SDS011;34730;50.894;6.052;2022-07-29T02:32:39;7.10;;;2.30;;
48919;SDS011;34730;50.894;6.052;2022-07-29T02:33:13;6.55;;;2.35;;
48919;SDS011;34730;50.894;6.052;2022-07-29T02:33:46;8.02;;;2.90;;
48919;SDS011;34730;50.894;6.052;2022-07-29T02:34:18;6.50;;;2.78;;
48919;SDS011;34730;50.894;6.052;2022-07-29T02:34:51;7.20;;;2.60;;
48919;SDS011;34730;50.894;6.052;2022-07-29T02:35:23;7.22;;;2.25;;
48919;SDS011;34730;50.894;6.052;2022-07-29T02:35:54;10.02;;;3.08;;
48919;SDS011;34730;50.894;6.052;2022-07-29T02:36:26;4.88;;;2.42;;
48919;SDS011;34730;50.894;6.052;2022-07-29T02:37:02;6.15;;;2.30;;
48919;SDS011;34730;50.894;6.052;2022-07-29T02:37:33;6.13;;;2.65;;
48919;SDS011;34730;50.894;6.052;2022-07-29T02:38:07;5.57;;;2.35;;
48919;SDS011;34730;50.894;6.052;2022-07-29T02:39:01;6.70;;;2.65;;
48919;SDS011;34730;50.894;6.052;2022-07-29T02:39:35;6.18;;;2.72;;
48919;SDS011;34730;50.894;6.052;2022-07-29T02:40:08;8.32;;;2.72;;
48919;SDS011;34730;50.894;6.052;2022-07-29T02:40:44;8.52;;;2.90;;
48919;SDS011;34730;50.894;6.052;2022-07-29T02:41:23;5.75;;;2.50;;
48919;SDS011;34730;50.894;6.052;2022-07-29T02:42:07;9.27;;;3.00;;
48919;SDS011;34730;50.894;6.052;2022-07-29T02:42:41;5.80;;;2.42;;
48919;SDS011;34730;50.894;6.052;2022-07-29T02:43:19;7.00;;;2.67;;
48919;SDS011;34730;50.894;6.052;2022-07-29T02:43:53;8.27;;;2.25;;
48919;SDS011;34730;50.894;6.052;2022-07-29T02:44:26;8.15;;;2.65;;
48919;SDS011;34730;50.894;6.052;2022-07-29T02:44:57;5.63;;;2.45;;
48919;SDS011;34730;50.894;6.052;2022-07-29T02:45:28;5.53;;;2.50;;
48919;SDS011;34730;50.894;6.052;2022-07-29T02:45:59;5.13;;;2.38;;
48919;SDS011;34730;50.894;6.052;2022-07-29T02:46:33;7.60;;;2.65;;
48919;SDS011;34730;50.894;6.052;2022-07-29T02:47:41;6.82;;;2.65;;
48919;SDS011;34730;50.894;6.052;2022-07-29T02:48:19;5.82;;;2.30;;
48919;SDS011;34730;50.894;6.052;2022-07-29T02:49:00;7.88;;;2.70;;
48919;SDS011;34730;50.894;6.052;2022-07-29T02:49:52;5.30;;;2.30;;
48919;SDS011;34730;50.894;6.052;2022-07-29T02:50:33;6.43;;;2.65;;
48919;SDS011;34730;50.894;6.052;2022-07-29T02:51:11;6.85;;;2.65;;
48919;SDS011;34730;50.894;6.052;2022-07-29T02:51:52;6.32;;;2.85;;
48919;SDS011;34730;50.894;6.052;2022-07-29T02:52:37;8.98;;;3.03;;
48919;SDS011;34730;50.894;6.052;2022-07-29T02:53:15;7.00;;;2.58;;
48919;SDS011;34730;50.894;6.052;2022-07-29T02:53:53;7.55;;;2.50;;
48919;SDS011;34730;50.894;6.052;2022-07-29T02:55:11;8.55;;;2.50;;
48919;SDS011;34730;50.894;6.052;2022-07-29T02:56:26;8.07;;;2.90;;
48919;SDS011;34730;50.894;6.052;2022-07-29T02:57:06;4.65;;;2.60;;
48919;SDS011;34730;50.894;6.052;2022-07-29T02:57:47;5.97;;;2.60;;
48919;SDS011;34730;50.894;6.052;2022-07-29T02:58:26;6.63;;;2.35;;
48919;SDS011;34730;50.894;6.052;2022-07-29T02:59:03;8.10;;;2.88;;
48919;SDS011;34730;50.894;6.052;2022-07-29T02:59:37;6.85;;;2.58;;
48919;SDS011;34730;50.894;6.052;2022-07-29T03:00:11;7.43;;;2.88;;
48919;SDS011;34730;50.894;6.052;2022-07-29T03:00:43;7.47;;;2.60;;
48919;SDS011;34730;50.894;6.052;2022-07-29T03:01:21;5.32;;;2.40;;
48919;SDS011;34730;50.894;6.052;2022-07-29T03:01:54;7.32;;;2.70;;
48919;SDS011;34730;50.894;6.052;2022-07-29T03:02:27;7.80;;;2.83;;
48919;SDS011;34730;50.894;6.052;2022-07-29T03:03:01;5.40;;;2.30;;
48919;SDS011;34730;50.894;6.052;2022-07-29T03:03:39;5.10;;;2.60;;
48919;SDS011;34730;50.894;6.052;2022-07-29T03:04:15;6.15;;;2.50;;
48919;SDS011;34730;50.894;6.052;2022-07-29T03:04:48;5.13;;;2.38;;
48919;SDS011;34730;50.894;6.052;2022-07-29T03:05:21;4.57;;;2.25;;
48919;SDS011;34730;50.894;6.052;2022-07-29T03:05:54;5.13;;;2.55;;
48919;SDS011;34730;50.894;6.052;2022-07-29T03:06:27;6.30;;;2.53;;
48919;SDS011;34730;50.894;6.052;2022-07-29T03:06:59;5.53;;;2.20;;
48919;SDS011;34730;50.894;6.052;2022-07-29T03:07:34;5.82;;;2.30;;
48919;SDS011;34730;50.894;6.052;2022-07-29T03:08:06;4.45;;;2.20;;
48919;SDS011;34730;50.894;6.052;2022-07-29T03:08:41;4.45;;;2.10;;
48919;SDS011;34730;50.894;6.052;2022-07-29T03:09:13;6.13;;;2.70;;
48919;SDS011;34730;50.894;6.052;2022-07-29T03:09:44;8.80;;;2.50;;
48919;SDS011;34730;50.894;6.052;2022-07-29T03:10:16;6.82;;;2.70;;
48919;SDS011;34730;50.894;6.052;2022-07-29T03:10:47;5.85;;;2.38;;
48919;SDS011;34730;50.894;6.052;2022-07-29T03:11:20;6.28;;;2.60;;
48919;SDS011;34730;50.894;6.052;2022-07-29T03:11:54;6.57;;;2.83;;
48919;SDS011;34730;50.894;6.052;2022-07-29T03:12:26;6.63;;;2.45;;
48919;SDS011;34730;50.894;6.052;2022-07-29T03:13:02;4.60;;;2.30;;
48919;SDS011;34730;50.894;6.052;2022-07-29T03:13:37;5.15;;;2.50;;
48919;SDS011;34730;50.894;6.052;2022-07-29T03:14:09;6.20;;;2.65;;
48919;SDS011;34730;50.894;6.052;2022-07-29T03:14:40;5.88;;;2.30;;
48919;SDS011;34730;50.894;6.052;2022-07-29T03:15:12;5.30;;;2.22;;
48919;SDS011;34730;50.894;6.052;2022-07-29T03:15:46;4.65;;;2.30;;
48919;SDS011;34730;50.894;6.052;2022-07-29T03:16:18;7.35;;;2.40;;
48919;SDS011;34730;50.894;6.052;2022-07-29T03:16:50;5.47;;;2.28;;
48919;SDS011;34730;50.894;6.052;2022-07-29T03:17:21;8.27;;;2.70;;
48919;SDS011;34730;50.894;6.052;2022-07-29T03:17:56;7.72;;;2.90;;
48919;SDS011;34730;50.894;6.052;2022-07-29T03:18:28;6.20;;;2.20;;
48919;SDS011;34730;50.894;6.052;2022-07-29T03:19:00;10.38;;;2.35;;
48919;SDS011;34730;50.894;6.052;2022-07-29T03:19:31;5.95;;;2.30;;
48919;SDS011;34730;50.894;6.052;2022-07-29T03:20:04;7.07;;;2.60;;
48919;SDS011;34730;50.894;6.052;2022-07-29T03:20:37;8.80;;;2.80;;
48919;SDS011;34730;50.894;6.052;2022-07-29T03:21:08;5.38;;;2.42;;
48919;SDS011;34730;50.894;6.052;2022-07-29T03:21:39;7.32;;;2.80;;
48919;SDS011;34730;50.894;6.052;2022-07-29T03:22:13;7.50;;;2.72;;
48919;SDS011;34730;50.894;6.052;2022-07-29T03:22:44;6.72;;;2.58;;
48919;SDS011;34730;50.894;6.052;2022-07-29T03:23:22;5.82;;;2.38;;
48919;SDS011;34730;50.894;6.052;2022-07-29T03:23:57;7.95;;;2.70;;
48919;SDS011;34730;50.894;6.052;2022-07-29T03:24:29;5.70;;;2.63;;
48919;SDS011;34730;50.894;6.052;2022-07-29T03:25:08;6.38;;;2.60;;
48919;SDS011;34730;50.894;6.052;2022-07-29T03:25:43;4.75;;;2.20;;
48919;SDS011;34730;50.894;6.052;2022-07-29T03:26:14;8.75;;;2.40;;
48919;SDS011;34730;50.894;6.052;2022-07-29T03:26:44;6.53;;;2.58;;
48919;SDS011;34730;50.894;6.052;2022-07-29T03:27:15;5.15;;;2.17;;
48919;SDS011;34730;50.894;6.052;2022-07-29T03:27:46;6.65;;;2.55;;
48919;SDS011;34730;50.894;6.052;2022-07-29T03:28:18;4.75;;;2.30;;
48919;SDS011;34730;50.894;6.052;2022-07-29T03:28:49;7.22;;;2.60;;
48919;SDS011;34730;50.894;6.052;2022-07-29T03:29:20;6.13;;;2.67;;
48919;SDS011;34730;50.894;6.052;2022-07-29T03:29:51;7.20;;;2.65;;
48919;SDS011;34730;50.894;6.052;2022-07-29T03:30:23;5.60;;;2.03;;
48919;SDS011;34730;50.894;6.052;2022-07-29T03:30:54;7.07;;;2.65;;
48919;SDS011;34730;50.894;6.052;2022-07-29T03:31:24;5.25;;;2.42;;
48919;SDS011;34730;50.894;6.052;2022-07-29T03:31:55;6.70;;;2.55;;
48919;SDS011;34730;50.894;6.052;2022-07-29T03:32:26;5.68;;;2.47;;
48919;SDS011;34730;50.894;6.052;2022-07-29T03:32:58;5.38;;;2.67;;
48919;SDS011;34730;50.894;6.052;2022-07-29T03:33:29;5.82;;;2.50;;
48919;SDS011;34730;50.894;6.052;2022-07-29T03:34:00;5.22;;;2.47;;
48919;SDS011;34730;50.894;6.052;2022-07-29T03:34:31;8.00;;;2.30;;
48919;SDS011;34730;50.894;6.052;2022-07-29T03:35:03;4.90;;;2.20;;
48919;SDS011;34730;50.894;6.052;2022-07-29T03:35:35;4.25;;;2.50;;
48919;SDS011;34730;50.894;6.052;2022-07-29T03:36:06;5.38;;;2.53;;
48919;SDS011;34730;50.894;6.052;2022-07-29T03:36:37;6.80;;;2.65;;
48919;SDS011;34730;50.894;6.052;2022-07-29T03:37:08;5.38;;;2.45;;
48919;SDS011;34730;50.894;6.052;2022-07-29T03:37:38;6.03;;;2.20;;
48919;SDS011;34730;50.894;6.052;2022-07-29T03:38:10;4.88;;;2.38;;
48919;SDS011;34730;50.894;6.052;2022-07-29T03:38:41;6.95;;;2.63;;